createdAt,value
2018-11-22T00:01:12.327Z,37.10
2018-11-22T00:03:45.095Z,33.30
2018-11-22T00:06:17.715Z,31.97
2018-11-22T00:08:47.197Z,28.63
2018-11-22T00:11:17.324Z,33.90
2018-11-22T00:13:46.892Z,34.47
2018-11-22T00:16:16.828Z,33.37
2018-11-22T00:18:46.616Z,33.27
2018-11-22T00:21:16.346Z,36.37
2018-11-22T00:23:46.418Z,33.07
2018-11-22T00:26:20.275Z,33.20
2018-11-22T00:28:50.281Z,32.60
2018-11-22T00:31:22.964Z,35.83
2018-11-22T00:33:53.066Z,33.20
2018-11-22T00:36:22.950Z,35.20
2018-11-22T00:38:53.028Z,31.67
2018-11-22T00:41:23.433Z,35.37
2018-11-22T00:43:53.420Z,29.97
2018-11-22T00:46:23.762Z,30.83
2018-11-22T00:48:58.698Z,33.80
2018-11-22T00:51:28.809Z,30.63
2018-11-22T00:53:58.134Z,30.30
2018-11-22T00:56:29.907Z,32.07
2018-11-22T00:59:00.502Z,36.67
2018-11-22T01:01:30.185Z,33.53
2018-11-22T01:04:01.158Z,39.03
2018-11-22T01:06:30.278Z,29.43
2018-11-22T01:09:00.964Z,34.10
2018-11-22T01:11:30.699Z,36.47
2018-11-22T01:14:03.818Z,34.87
2018-11-22T01:16:34.960Z,30.77
2018-11-22T01:19:05.277Z,35.90
2018-11-22T01:21:35.628Z,37.70
2018-11-22T01:24:08.193Z,39.67
2018-11-22T01:26:39.061Z,36.17
2018-11-22T01:29:08.597Z,39.27
2018-11-22T01:31:40.888Z,33.90
2018-11-22T01:34:10.743Z,34.97
2018-11-22T01:36:41.055Z,35.07
2018-11-22T01:39:12.527Z,38.60
2018-11-22T01:41:46.063Z,33.63
2018-11-22T01:44:19.221Z,39.27
2018-11-22T01:46:48.869Z,36.27
2018-11-22T01:49:18.534Z,34.80
2018-11-22T01:51:47.985Z,36.80
2018-11-22T01:54:19.298Z,40.63
2018-11-22T01:56:49.886Z,38.27
2018-11-22T01:59:23.310Z,36.77
2018-11-22T02:01:53.066Z,39.27
2018-11-22T02:04:25.085Z,41.67
2018-11-22T02:06:57.200Z,39.00
2018-11-22T02:09:26.934Z,39.27
2018-11-22T02:11:57.183Z,42.33
2018-11-22T02:14:26.857Z,41.13
2018-11-22T02:16:58.102Z,42.43
2018-11-22T02:19:28.570Z,39.53
2018-11-22T02:22:00.085Z,44.87
2018-11-22T02:24:29.869Z,42.63
2018-11-22T02:26:59.656Z,42.30
2018-11-22T02:29:30.521Z,44.70
2018-11-22T02:31:58.953Z,39.83
2018-11-22T02:34:30.517Z,39.07
2018-11-22T02:37:04.679Z,36.37
2018-11-22T02:39:35.253Z,36.97
2018-11-22T02:42:04.998Z,40.97
2018-11-22T12:18:03.480Z,57.00
2018-11-22T12:20:31.921Z,67.43
2018-11-22T12:23:00.474Z,68.23
2018-11-22T12:25:29.419Z,63.83
2018-11-22T12:27:59.984Z,66.60
2018-11-22T12:30:29.923Z,64.43
2018-11-22T12:33:03.685Z,76.93
2018-11-22T12:35:37.611Z,63.93
2018-11-22T12:38:11.509Z,57.80
2018-11-22T12:40:39.989Z,61.57
2018-11-22T12:43:08.450Z,65.50
2018-11-22T12:45:37.039Z,60.43
2018-11-22T12:48:05.516Z,65.10
2018-11-22T12:50:34.052Z,67.63
2018-11-22T12:53:02.511Z,63.43
2018-11-22T12:55:30.994Z,62.80
2018-11-22T12:57:59.496Z,58.27
2018-11-22T13:00:27.988Z,63.57
2018-11-22T13:02:56.478Z,65.40
2018-11-22T13:05:25.000Z,60.27
2018-11-22T13:07:53.457Z,68.50
2018-11-22T13:10:21.994Z,61.37
2018-11-22T13:12:50.618Z,66.60
2018-11-22T13:15:20.422Z,57.67
2018-11-22T13:17:48.868Z,65.20
2018-11-22T13:20:18.943Z,60.80
2018-11-22T13:22:47.411Z,60.80
2018-11-22T13:25:17.339Z,65.57
2018-11-22T13:27:45.825Z,65.83
2018-11-22T13:30:17.503Z,66.63
2018-11-22T13:32:46.811Z,63.13
2018-11-22T13:35:16.251Z,63.97
2018-11-22T13:37:45.796Z,63.50
2018-11-22T13:40:14.335Z,63.83
2018-11-22T13:42:43.708Z,61.43
2018-11-22T13:45:14.154Z,69.70
2018-11-22T13:47:43.951Z,65.53
2018-11-22T13:50:18.650Z,59.27
2018-11-22T13:52:48.476Z,65.17
2018-11-22T13:55:16.973Z,64.90
2018-11-22T13:57:45.468Z,63.80
2018-11-22T14:00:19.394Z,68.47
2018-11-22T14:02:49.480Z,72.10
2018-11-22T14:05:17.983Z,64.17
2018-11-22T14:07:46.494Z,64.97
2018-11-22T14:10:17.129Z,66.20
2018-11-22T14:12:45.532Z,64.90
2018-11-22T14:15:17.072Z,60.33
2018-11-22T14:17:46.018Z,70.27
2018-11-22T14:20:16.929Z,65.37
2018-11-22T14:22:45.441Z,65.93
2018-11-22T14:25:15.153Z,58.97
2018-11-22T14:27:44.513Z,64.33
2018-11-22T14:30:17.564Z,58.27
2018-11-22T14:32:46.734Z,71.10
2018-11-22T14:35:16.266Z,64.80
2018-11-22T14:37:45.050Z,64.57
2018-11-22T14:40:15.405Z,65.13
2018-11-22T14:42:44.537Z,71.77
2018-11-22T14:45:14.210Z,66.00
2018-11-22T14:47:43.716Z,62.10
2018-11-22T14:50:17.054Z,66.37
2018-11-22T14:52:49.036Z,67.90
2018-11-22T14:55:17.560Z,70.70
2018-11-22T14:57:46.062Z,65.73
2018-11-22T15:00:15.605Z,64.87
2018-11-22T15:02:48.293Z,66.17
2018-11-22T15:05:17.075Z,75.77
2018-11-22T15:07:45.813Z,67.97
2018-11-22T15:10:15.879Z,64.13
2018-11-22T15:12:45.552Z,68.93
2018-11-22T15:15:16.415Z,66.13
2018-11-22T15:17:44.951Z,68.97
2018-11-22T15:20:14.725Z,79.53
2018-11-22T15:22:43.905Z,68.90
2018-11-22T15:25:17.135Z,64.13
2018-11-22T15:27:45.868Z,72.47
2018-11-22T15:30:16.646Z,73.43
2018-11-22T15:32:45.095Z,77.30
2018-11-22T15:35:14.866Z,53.20
2018-11-22T15:37:44.510Z,71.87
2018-11-22T15:40:15.535Z,69.50
2018-11-22T15:42:44.578Z,59.17
2018-11-22T15:45:15.358Z,68.27
2018-11-22T15:47:44.410Z,54.37
2018-11-22T15:50:15.208Z,66.27
2018-11-22T15:52:44.637Z,67.70
2018-11-22T15:55:20.832Z,72.83
2018-11-22T15:57:44.691Z,74.33
2018-11-22T16:00:22.270Z,65.90
2018-11-22T16:02:51.764Z,68.93
2018-11-22T16:05:21.326Z,73.77
2018-11-22T16:07:49.952Z,67.83
2018-11-22T16:10:26.372Z,71.77
2018-11-22T16:12:50.844Z,65.67
2018-11-22T16:15:27.611Z,67.13
2018-11-22T16:17:56.599Z,74.37
2018-11-22T16:20:25.100Z,67.30
2018-11-22T16:22:53.559Z,74.27
2018-11-22T16:25:22.063Z,68.40
2018-11-22T16:27:50.602Z,77.40
2018-11-22T16:30:21.550Z,69.40
2018-11-22T16:32:50.071Z,66.90
2018-11-22T16:35:19.304Z,70.83
2018-11-22T16:37:47.793Z,78.70
2018-11-22T16:40:18.616Z,67.53
2018-11-22T16:42:48.374Z,77.97
2018-11-22T16:45:21.321Z,70.30
2018-11-22T16:47:49.956Z,74.27
2018-11-22T16:50:20.053Z,65.97
2018-11-22T16:52:48.595Z,73.07
2018-11-22T16:55:17.573Z,72.57
2018-11-22T16:57:47.472Z,69.77
2018-11-22T17:00:25.725Z,71.73
2018-11-22T17:02:55.407Z,76.33
2018-11-22T17:05:24.702Z,67.07
2018-11-22T17:07:53.470Z,72.30
2018-11-22T17:10:23.306Z,66.40
2018-11-22T17:12:53.091Z,64.07
2018-11-22T17:15:22.914Z,66.87
2018-11-22T17:17:52.950Z,65.60
2018-11-22T17:20:22.332Z,67.60
2018-11-22T17:22:51.489Z,67.37
2018-11-22T17:25:22.135Z,67.43
2018-11-22T17:27:52.317Z,63.20
2018-11-22T17:30:23.512Z,64.97
2018-11-22T17:32:52.017Z,69.17
2018-11-22T17:35:21.883Z,65.93
2018-11-22T17:37:50.861Z,64.77
2018-11-22T17:40:21.379Z,69.97
2018-11-22T17:42:49.925Z,74.70
2018-11-22T17:45:21.875Z,63.13
2018-11-22T17:47:50.566Z,60.13
2018-11-22T17:50:19.382Z,58.90
2018-11-22T17:52:47.870Z,64.63
2018-11-22T17:55:19.010Z,61.97
2018-11-22T17:57:47.506Z,66.47
2018-11-22T18:00:49.354Z,61.03
2018-11-22T18:03:18.212Z,60.20
2018-11-22T18:05:46.791Z,64.17
2018-11-22T18:08:15.586Z,63.63
2018-11-22T18:10:44.494Z,62.53
2018-11-22T18:13:13.247Z,65.33
2018-11-22T18:15:46.979Z,63.50
2018-11-22T18:18:15.497Z,62.80
2018-11-22T18:20:44.274Z,63.87
2018-11-22T18:23:13.004Z,60.50
2018-11-22T18:25:41.593Z,65.70
2018-11-22T18:28:10.135Z,57.30
2018-11-22T18:30:38.647Z,63.70
2018-11-22T18:33:08.097Z,63.03
2018-11-22T18:35:36.670Z,62.90
2018-11-22T18:38:05.282Z,62.53
2018-11-22T18:40:36.822Z,63.00
2018-11-22T18:43:05.672Z,60.50
2018-11-22T18:45:35.627Z,61.53
2018-11-22T18:48:05.062Z,61.40
2018-11-22T18:50:34.529Z,56.57
2018-11-22T18:53:03.073Z,63.10
2018-11-22T18:55:31.595Z,55.17
2018-11-22T18:58:00.144Z,70.10
2018-11-22T19:00:35.053Z,64.43
2018-11-22T19:03:05.432Z,66.83
2018-11-22T19:05:33.919Z,60.90
2018-11-22T19:08:02.412Z,58.17
2018-11-22T19:10:35.232Z,55.83
2018-11-22T19:13:06.237Z,71.83
2018-11-22T19:15:36.287Z,65.20
2018-11-22T19:18:06.791Z,61.90
2018-11-22T19:20:37.670Z,62.10
2018-11-22T19:23:07.179Z,63.30
2018-11-22T19:25:35.698Z,64.27
2018-11-22T19:28:04.886Z,69.03
2018-11-22T19:30:37.627Z,64.83
2018-11-22T19:33:07.527Z,66.43
2018-11-22T19:35:37.963Z,63.10
2018-11-22T19:38:07.283Z,67.33
2018-11-22T19:40:37.110Z,67.47
2018-11-22T19:43:07.263Z,66.03
2018-11-22T19:45:37.467Z,66.10
2018-11-22T19:48:06.373Z,68.17
2018-11-22T19:50:35.024Z,66.80
2018-11-22T19:53:04.766Z,64.30
2018-11-22T19:55:34.306Z,71.97
2018-11-22T19:58:04.924Z,66.07
2018-11-22T20:00:33.505Z,64.10
2018-11-22T20:03:03.779Z,66.47
2018-11-22T20:05:34.063Z,61.80
2018-11-22T20:08:06.233Z,70.90
2018-11-22T20:10:36.495Z,64.90
2018-11-22T20:13:05.121Z,61.20
2018-11-22T20:15:33.891Z,73.07
2018-11-22T20:18:03.670Z,70.70
2018-11-22T20:20:32.143Z,64.07
2018-11-22T20:23:00.663Z,67.47
2018-11-22T20:25:29.184Z,70.37
2018-11-22T20:27:57.807Z,72.83
2018-11-22T20:30:27.827Z,67.43
2018-11-22T20:32:56.437Z,67.40
2018-11-22T20:35:24.963Z,64.87
2018-11-22T20:37:53.727Z,65.30
2018-11-22T20:40:23.367Z,65.63
2018-11-22T20:42:52.016Z,72.23
2018-11-22T20:45:21.997Z,76.03
2018-11-22T20:47:55.129Z,68.50
2018-11-22T20:50:24.889Z,76.50
2018-11-22T20:52:53.392Z,72.13
2018-11-22T20:55:26.382Z,72.17
2018-11-22T20:57:58.279Z,75.53
2018-11-22T21:00:28.108Z,66.93
2018-11-22T21:02:56.640Z,75.90
2018-11-22T21:05:28.008Z,73.70
2018-11-22T21:07:56.593Z,77.93
2018-11-22T21:10:26.468Z,72.20
2018-11-22T21:12:54.963Z,77.33
2018-11-22T21:15:24.702Z,70.40
2018-11-22T21:17:54.837Z,75.30
2018-11-22T21:20:25.011Z,73.73
2018-11-22T21:22:53.459Z,80.47
2018-11-22T21:25:22.532Z,71.20
2018-11-22T21:27:50.992Z,74.73
2018-11-22T21:30:24.250Z,74.27
2018-11-22T21:32:53.108Z,71.27
2018-11-22T21:35:21.907Z,77.07
2018-11-22T21:37:51.488Z,68.97
2018-11-22T21:40:20.708Z,76.60
2018-11-22T21:42:49.199Z,78.17
2018-11-22T21:45:19.122Z,74.37
2018-11-22T21:47:47.625Z,73.00
2018-11-22T21:50:17.336Z,72.20
2018-11-22T21:52:45.923Z,78.73
2018-11-22T21:55:24.972Z,76.87
2018-11-22T21:57:54.512Z,80.57
2018-11-22T22:00:28.852Z,74.87
2018-11-22T22:02:59.470Z,76.13
2018-11-22T22:05:28.000Z,74.30
2018-11-22T22:07:56.442Z,74.83
2018-11-22T22:10:24.934Z,79.20
2018-11-22T22:12:53.471Z,74.10
2018-11-22T22:15:24.122Z,75.60
2018-11-22T22:17:52.629Z,78.60
2018-11-22T22:20:23.574Z,76.20
2018-11-22T22:22:52.097Z,75.30
2018-11-22T22:25:21.574Z,76.37
2018-11-22T22:27:50.610Z,84.60
2018-11-22T22:30:20.496Z,80.77
2018-11-22T22:32:50.039Z,85.17
2018-11-22T22:35:18.560Z,76.17
2018-11-22T22:37:47.102Z,79.47
2018-11-22T22:40:16.986Z,86.07
2018-11-22T22:42:46.570Z,84.40
2018-11-22T22:45:15.997Z,82.10
2018-11-22T22:47:45.438Z,72.23
2018-11-22T22:50:15.747Z,81.87
2018-11-22T22:52:45.089Z,85.27
2018-11-22T22:55:13.935Z,80.73
2018-11-22T22:57:42.865Z,87.17
2018-11-22T23:00:18.404Z,71.53
2018-11-22T23:02:47.002Z,81.40
2018-11-22T23:05:15.437Z,75.43
2018-11-22T23:07:43.912Z,77.90
2018-11-22T23:10:12.374Z,77.93
2018-11-22T23:12:40.872Z,84.07
2018-11-22T23:15:11.690Z,79.50
2018-11-22T23:17:40.715Z,78.67
2018-11-22T23:20:15.219Z,77.63
2018-11-22T23:22:44.331Z,74.67
2018-11-22T23:25:13.675Z,85.73
2018-11-22T23:27:42.279Z,76.53
2018-11-22T23:30:16.444Z,82.40
2018-11-22T23:32:47.660Z,77.90
2018-11-22T23:35:16.598Z,89.80
2018-11-22T23:37:45.237Z,74.27
2018-11-22T23:40:15.035Z,78.13
2018-11-22T23:42:43.720Z,80.17
2018-11-22T23:45:13.586Z,80.53
2018-11-22T23:47:42.809Z,81.23
2018-11-22T23:50:14.311Z,78.83
2018-11-22T23:52:44.108Z,87.33
2018-11-22T23:55:12.661Z,80.73
2018-11-22T23:57:41.399Z,80.60
